Las Cruces, NM (88001)

4:58 AM MDT on August 27, 2014 (GMT -0600)
NMSUAtmospheresNode | Change Station
CLOSE
Current Station
Personal Weather Station
Location: Las Cruces, NM
Elevation: 3908 ft
Nearby Weather Stations

Elev 3908 ft 32.28 °N, 106.75 °W | Updated 14 seconds ago

Overcast
Overcast
68.2 °F
Feels Like 68.2 °F
N
0.0
Wind Variable Wind from East
Gusts 0.0 mph

Today
High -- | Low -- °F
--% Chance of Precip.
Yesterday
High -- | Low -- °F
Precip. -- in
6:38 AM 7:37 PM
Waxing Crescent, 3% visible
Pressure 30.19 in
Visibility 10.0 miles
Clouds Scattered Clouds 11000 ft
Dew Point 65 °F
Humidity 89%
Rainfall 0.00 in
Snow Depth Not available.
UV 0 out of 12
Pollen 8.50 out of 12
Air Quality Not available.
Flu Activity Not available.
METAR KLRU 271035Z AUTO 34004KT 10SM SCT110 20/16 A3019 RMK AO2 T02000156 PWINO

More Conditions Fewer Conditions

Pressure 30.19 in
Visibility 10.0 miles
Clouds Scattered Clouds 11000 ft
Dew Point 65 °F
Humidity 89%
Rainfall 0.00 in
Snow Depth Not available.
UV 0 out of 12
Pollen 8.50 out of 12
Air Quality Not available.
Flu Activity Not available.
METAR KLRU 271035Z AUTO 34004KT 10SM SCT110 20/16 A3019 RMK AO2 T02000156 PWINO

More Conditions Fewer Conditions

10-Day Weather Forecast

Almanac

Astronomy

Aug. 27, 2014 Rise Set
Actual Time 6:38 AM MDT 7:37 PM MDT
Civil Twilight 6:13 AM MDT 8:02 PM MDT
Nautical Twilight 5:43 AM MDT 8:32 PM MDT
Astronomical Twilight 5:13 AM MDT 9:03 PM MDT
Moon 8:28 AM MDT 8:41 PM MDT
Length of Visible Light 13h 48m
Length of Day
12h 58m
Tomorrow will be 1m 52s shorter.
Waxing Crescent, 3% of the Moon is Illuminated
Today
Waxing Crescent
Sep 2
First Quarter
Sep 8
Full
Sep 15
Last Quarter
Sep 24
New

Today's Extremes

State Highs State Lows

Community

WunderPhotos

Upload Photos

1,747,666 photos uploaded!

Nearby

Snow Depth

Station Depth Elevation
Sierra Blanca 1 in 10280 ft
Silver Creek Divide 13 in 9000 ft
Frisco Divide 0 in 8000 ft
Rice Park 0 in 8460 ft
Santa Fe 2 in 11445 ft

Earthquake Activity

City Distance Mag. Time & Date
No recent earthquake activity has been reported nearby.
Minimum magnitude displayed is 2.5.

Coastal Water Temperatures

Place Temperature
No Stations Reporting

Nearby Weather Stations